createdAt,value
2019-04-11T00:00:23.592Z,82.80
2019-04-11T00:02:53.169Z,82.90
2019-04-11T00:05:22.979Z,83.10
2019-04-11T00:07:52.220Z,83.20
2019-04-11T00:10:21.032Z,82.80
2019-04-11T00:12:51.136Z,83.30
2019-04-11T00:15:20.322Z,83.50
2019-04-11T00:17:50.197Z,83.60
2019-04-11T00:20:20.102Z,83.60
2019-04-11T00:22:49.920Z,83.60
2019-04-11T00:25:19.811Z,83.60
2019-04-11T00:27:48.937Z,84.00
2019-04-11T00:30:18.243Z,84.10
2019-04-11T00:32:46.886Z,84.20
2019-04-11T00:35:15.590Z,84.30
2019-04-11T00:37:45.216Z,84.30
2019-04-11T00:40:15.154Z,84.30
2019-04-11T00:42:45.044Z,84.40
2019-04-11T00:45:15.753Z,84.50
2019-04-11T00:47:44.978Z,84.50
2019-04-11T00:50:14.780Z,84.70
2019-04-11T00:52:43.966Z,84.80
2019-04-11T00:55:13.367Z,84.90
2019-04-11T00:57:43.161Z,84.90
2019-04-11T01:00:13.127Z,85.20
2019-04-11T01:02:43.269Z,85.20
2019-04-11T01:05:12.942Z,85.30
2019-04-11T01:07:42.824Z,85.60
2019-04-11T01:10:12.184Z,85.80
2019-04-11T01:12:40.899Z,86.20
2019-04-11T01:15:11.438Z,86.20
2019-04-11T01:17:41.234Z,86.30
2019-04-11T01:20:11.245Z,86.60
2019-04-11T01:22:40.502Z,86.60
2019-04-11T01:25:10.456Z,86.80
2019-04-11T01:27:39.965Z,86.90
2019-04-11T01:30:11.938Z,87.20
2019-04-11T01:32:40.878Z,87.20
2019-04-11T01:35:09.575Z,87.30
2019-04-11T01:37:39.850Z,87.60
2019-04-11T01:40:09.840Z,87.60
2019-04-11T01:42:39.644Z,87.70
2019-04-11T01:45:09.548Z,88.00
2019-04-11T01:47:46.898Z,88.10
2019-04-11T01:50:17.431Z,88.30
2019-04-11T01:52:46.681Z,88.50
2019-04-11T01:55:16.390Z,88.70
2019-04-11T01:57:45.027Z,88.70
2019-04-11T02:00:17.708Z,89.00
2019-04-11T02:02:56.984Z,89.20
2019-04-11T02:05:27.444Z,89.40
2019-04-11T02:07:56.157Z,89.60
2019-04-11T02:10:24.809Z,90.00
2019-04-11T02:12:53.405Z,90.00
2019-04-11T02:15:24.026Z,90.10
2019-04-11T02:17:52.956Z,90.10
2019-04-11T02:20:21.539Z,90.10
2019-04-11T02:22:52.866Z,90.30
2019-04-11T02:25:24.727Z,90.30
2019-04-11T02:27:53.450Z,90.40
2019-04-11T02:30:22.742Z,90.40
2019-04-11T02:32:53.437Z,90.40
2019-04-11T02:35:23.806Z,90.50
2019-04-11T02:37:54.699Z,90.50
2019-04-11T02:40:24.558Z,90.60
2019-04-11T02:42:54.901Z,90.60
2019-04-11T02:45:36.318Z,90.60
2019-04-11T02:47:56.341Z,90.80
2019-04-11T02:50:26.488Z,90.80
2019-04-11T02:52:56.678Z,90.80
2019-04-11T02:55:25.458Z,90.80
2019-04-11T02:57:54.415Z,90.70
2019-04-11T03:00:24.435Z,90.70
2019-04-11T03:02:53.560Z,90.70
2019-04-11T03:05:22.582Z,90.70
2019-04-11T03:07:51.548Z,90.80
2019-04-11T03:10:21.010Z,90.80
2019-04-11T03:12:50.147Z,90.80
2019-04-11T03:15:32.097Z,90.90
2019-04-11T03:17:54.848Z,90.90
2019-04-11T03:20:28.989Z,90.80
2019-04-11T03:22:57.025Z,90.90
2019-04-11T03:25:22.552Z,90.90
2019-04-11T03:27:51.734Z,91.00
2019-04-11T03:30:34.827Z,90.90
2019-04-11T03:38:18.803Z,91.00
2019-04-11T03:40:43.837Z,91.00
2019-04-11T03:43:08.895Z,91.00
2019-04-11T03:45:47.992Z,91.00
2019-04-11T03:48:10.501Z,91.00
2019-04-11T03:50:30.519Z,91.00
2019-04-11T03:53:00.102Z,91.10
2019-04-11T03:55:30.718Z,91.10
2019-04-11T03:58:01.011Z,91.20
2019-04-11T04:00:35.446Z,91.20
2019-04-11T04:03:01.491Z,91.20
2019-04-11T04:05:36.175Z,91.20
2019-04-11T04:08:03.951Z,91.20
2019-04-11T04:10:34.210Z,91.20
2019-04-11T04:13:04.988Z,91.30
2019-04-11T04:15:51.578Z,91.30
2019-04-11T04:18:23.910Z,91.30
2019-04-11T04:20:57.639Z,91.40
2019-04-11T04:23:29.445Z,91.40
2019-04-11T04:26:00.862Z,91.40
2019-04-11T04:28:29.491Z,91.40
2019-04-11T04:31:00.089Z,91.40
2019-04-11T04:33:30.396Z,91.50
2019-04-11T04:36:00.209Z,91.50
2019-04-11T04:38:29.649Z,91.50
2019-04-11T04:41:09.958Z,91.50
2019-04-11T04:43:31.565Z,91.60
2019-04-11T04:46:17.327Z,91.60
2019-04-11T04:48:32.173Z,91.60
2019-04-11T04:51:07.297Z,91.60
2019-04-11T04:53:32.522Z,91.70
2019-04-11T04:56:02.711Z,91.70
2019-04-11T04:58:31.752Z,91.70
2019-04-11T05:01:01.934Z,91.70
2019-04-11T05:03:32.015Z,91.80
2019-04-11T05:06:03.366Z,91.80
2019-04-11T05:08:32.549Z,91.80
2019-04-11T05:11:02.257Z,92.10
2019-04-11T05:13:32.293Z,91.70
2019-04-11T05:16:08.569Z,91.80
2019-04-11T05:18:32.142Z,91.80
2019-04-11T05:21:01.151Z,91.90
2019-04-11T05:23:29.847Z,91.80
2019-04-11T05:25:59.978Z,91.80
2019-04-11T05:28:29.798Z,91.80
2019-04-11T05:30:58.468Z,91.80
2019-04-11T05:33:27.453Z,91.80
2019-04-11T05:35:56.388Z,91.80
2019-04-11T05:38:25.311Z,91.90
2019-04-11T05:40:54.596Z,91.90
2019-04-11T05:43:28.066Z,91.90
2019-04-11T05:45:55.073Z,91.90
2019-04-11T05:48:32.216Z,91.90
2019-04-11T05:51:00.871Z,91.90
2019-04-11T05:53:32.771Z,91.90
2019-04-11T05:56:07.106Z,91.80
2019-04-11T05:58:36.687Z,91.60
2019-04-11T06:01:14.518Z,91.10
2019-04-11T06:03:45.370Z,90.80
2019-04-11T06:06:16.252Z,90.40
2019-04-11T06:08:46.057Z,90.10
2019-04-11T06:11:22.159Z,90.00
2019-04-11T06:14:07.286Z,89.90
2019-04-11T06:16:43.613Z,89.80
2019-04-11T06:19:12.373Z,90.00
2019-04-11T06:21:42.666Z,90.00
2019-04-11T06:24:25.901Z,90.10
2019-04-11T06:27:02.382Z,90.10
2019-04-11T06:29:32.727Z,90.10
2019-04-11T06:32:03.535Z,90.20
2019-04-11T06:34:43.783Z,90.30
2019-04-11T06:37:19.943Z,90.20
2019-04-11T06:39:53.958Z,90.30
2019-04-11T06:42:31.727Z,90.20
2019-04-11T06:45:04.607Z,90.10
2019-04-11T06:47:37.825Z,90.20
2019-04-11T06:50:19.457Z,90.20
2019-04-11T06:52:48.793Z,90.20
2019-04-11T06:55:22.465Z,90.20
2019-04-11T06:57:52.729Z,90.10
2019-04-11T07:00:21.732Z,90.10
2019-04-11T07:02:52.923Z,89.90
2019-04-11T07:05:22.730Z,90.00
2019-04-11T07:07:53.631Z,90.00
2019-04-11T07:10:24.618Z,89.70
2019-04-11T07:12:55.982Z,90.10
2019-04-11T07:15:27.206Z,89.20
2019-04-11T07:18:14.013Z,89.20
2019-04-11T07:20:45.580Z,88.90
2019-04-11T07:23:32.940Z,88.80
2019-04-11T07:26:04.486Z,88.50
2019-04-11T07:28:35.752Z,88.20
2019-04-11T07:34:12.773Z,88.00
2019-04-11T07:37:00.262Z,87.50
2019-04-11T07:39:35.369Z,87.70
2019-04-11T07:42:07.059Z,86.80
2019-04-11T07:44:38.540Z,86.80
2019-04-11T07:47:17.274Z,86.10
2019-04-11T07:49:43.241Z,86.00
2019-04-11T07:52:20.448Z,86.00
2019-04-11T07:54:49.177Z,87.00
2019-04-11T07:57:31.314Z,86.10
2019-04-11T08:00:17.656Z,85.40
2019-04-11T08:02:50.322Z,85.50
2019-04-11T08:05:36.554Z,84.30
2019-04-11T08:08:23.739Z,84.70
2019-04-11T08:11:09.495Z,84.20
2019-04-11T08:13:40.799Z,83.70
2019-04-11T08:16:11.077Z,84.00
2019-04-11T08:18:41.358Z,83.60
2019-04-11T08:21:28.304Z,82.90
2019-04-11T08:23:58.578Z,83.00
2019-04-11T08:26:34.410Z,82.10
2019-04-11T08:29:09.295Z,82.80
2019-04-11T08:31:36.121Z,81.30
2019-04-11T08:34:04.979Z,80.10
2019-04-11T08:36:35.276Z,80.90
2019-04-11T08:39:06.837Z,80.40
2019-04-11T08:41:49.649Z,80.30
2019-04-11T08:44:19.423Z,79.30
2019-04-11T08:46:51.043Z,80.40
2019-04-11T08:49:29.091Z,80.40
2019-04-11T08:51:59.988Z,80.00
2019-04-11T08:54:47.971Z,78.70
2019-04-11T08:57:18.284Z,78.30
2019-04-11T08:59:57.714Z,78.50
2019-04-11T09:02:26.913Z,78.40
2019-04-11T09:05:13.107Z,77.60
2019-04-11T09:07:51.952Z,77.80
2019-04-11T09:10:40.609Z,76.70
2019-04-11T09:13:44.199Z,75.90
2019-04-11T09:16:17.263Z,75.80
2019-04-11T09:18:46.157Z,75.50
2019-04-11T09:21:16.387Z,74.90
2019-04-11T09:23:45.986Z,75.00
2019-04-11T09:26:34.008Z,73.70
2019-04-11T09:29:03.873Z,73.90
2019-04-11T09:31:34.194Z,73.30
2019-04-11T09:34:11.280Z,73.10
2019-04-11T09:36:41.847Z,72.50
2019-04-11T09:39:28.904Z,71.50
2019-04-11T09:42:14.909Z,70.30
2019-04-11T09:44:48.932Z,70.80
2019-04-11T09:47:36.252Z,69.60
2019-04-11T09:50:08.082Z,68.00
2019-04-11T09:52:45.220Z,69.10
2019-04-11T09:55:24.178Z,69.30
2019-04-11T09:57:58.646Z,69.60
2019-04-11T10:00:30.446Z,68.90
2019-04-11T10:03:00.865Z,69.40
2019-04-11T10:05:50.292Z,65.30
2019-04-11T10:08:37.276Z,62.20
2019-04-11T10:11:10.437Z,64.00
2019-04-11T10:13:57.567Z,61.90
2019-04-11T10:16:28.368Z,64.80
2019-04-11T10:19:05.515Z,64.60
2019-04-11T10:21:39.479Z,65.30
2019-04-11T10:24:22.450Z,66.00
2019-04-11T10:27:12.291Z,66.00
2019-04-11T10:29:42.626Z,65.00
2019-04-11T10:32:12.927Z,61.80
2019-04-11T10:34:59.718Z,62.40
2019-04-11T10:37:28.255Z,62.50
2019-04-11T10:39:59.845Z,61.20
2019-04-11T10:42:28.861Z,61.40
2019-04-11T10:45:15.298Z,61.90
2019-04-11T10:47:45.006Z,60.80
2019-04-11T10:50:15.855Z,62.60
2019-04-11T10:52:46.778Z,63.60
2019-04-11T10:55:19.838Z,62.00
2019-04-11T10:57:52.558Z,61.30
2019-04-11T11:00:23.034Z,60.00
2019-04-11T11:02:56.359Z,60.50
2019-04-11T11:05:30.437Z,60.20
2019-04-11T11:08:04.709Z,62.00
2019-04-11T11:10:35.473Z,63.50
2019-04-11T11:13:09.539Z,62.60
2019-04-11T11:15:39.881Z,61.30
2019-04-11T11:18:53.879Z,59.60
2019-04-11T11:21:00.328Z,59.60
2019-04-11T11:23:45.464Z,60.10
2019-04-11T11:26:22.626Z,60.00
2019-04-11T11:28:56.790Z,60.20
2019-04-11T11:31:39.049Z,60.70
2019-04-11T11:34:15.671Z,59.40
2019-04-11T11:36:47.973Z,60.50
2019-04-11T11:42:22.175Z,59.00
2019-04-11T11:44:59.330Z,57.50
2019-04-11T11:47:46.109Z,58.10
2019-04-11T11:50:20.101Z,59.20
2019-04-11T11:53:07.360Z,60.50
2019-04-11T11:55:39.506Z,60.00
2019-04-11T11:58:25.938Z,59.40
2019-04-11T12:00:57.828Z,58.10
2019-04-11T12:03:35.091Z,57.30
2019-04-11T12:06:09.586Z,58.30
2019-04-11T12:08:50.940Z,59.40
2019-04-11T12:11:19.857Z,59.40
2019-04-11T12:14:07.640Z,60.60
2019-04-11T12:16:43.994Z,60.10
2019-04-11T12:19:17.997Z,60.20
2019-04-11T12:21:47.634Z,58.80
2019-04-11T12:24:34.425Z,59.00
2019-04-11T12:27:16.741Z,60.10
2019-04-11T12:29:50.823Z,59.70
2019-04-11T12:32:30.583Z,59.30
2019-04-11T12:35:02.071Z,59.80
2019-04-11T12:37:45.435Z,60.20
2019-04-11T12:40:32.274Z,59.20
2019-04-11T12:43:02.564Z,60.00
2019-04-11T12:45:35.296Z,60.50
2019-04-11T12:48:04.850Z,59.00
2019-04-11T12:50:35.128Z,56.70
2019-04-11T12:53:05.669Z,58.00
2019-04-11T12:55:36.050Z,59.10
2019-04-11T12:58:21.373Z,57.80
2019-04-11T13:01:07.981Z,56.20
2019-04-11T13:03:50.272Z,56.60
2019-04-11T13:06:35.279Z,57.30
2019-04-11T13:09:01.120Z,56.20
2019-04-11T13:11:31.358Z,57.30
2019-04-11T13:14:19.842Z,58.00
2019-04-11T13:16:50.066Z,57.00
2019-04-11T13:19:20.272Z,57.80
2019-04-11T13:21:53.485Z,57.40
2019-04-11T13:24:23.775Z,55.40
2019-04-11T13:27:10.457Z,53.90
2019-04-11T13:29:40.735Z,53.10
2019-04-11T13:32:27.088Z,52.50
2019-04-11T13:34:57.326Z,52.60
2019-04-11T13:37:43.972Z,51.90
2019-04-11T13:40:17.142Z,50.80
2019-04-11T13:42:59.364Z,51.00
2019-04-11T13:45:29.913Z,51.20
2019-04-11T13:48:16.358Z,51.50
2019-04-11T13:50:45.370Z,50.30
2019-04-11T13:53:31.821Z,48.90
2019-04-11T13:56:00.461Z,48.00
2019-04-11T13:58:30.777Z,47.60
2019-04-11T14:00:59.700Z,47.20
2019-04-11T14:03:47.599Z,47.50
2019-04-11T14:06:19.103Z,47.00
2019-04-11T14:08:49.320Z,46.20
2019-04-11T14:11:19.666Z,46.00
2019-04-11T14:13:48.262Z,45.70
2019-04-11T14:16:24.141Z,45.20
2019-04-11T14:18:54.364Z,45.10
2019-04-11T14:21:24.635Z,44.00
2019-04-11T14:24:11.663Z,44.10
2019-04-11T14:26:42.096Z,42.60
2019-04-11T14:29:24.139Z,43.60
2019-04-11T14:31:54.670Z,42.10
2019-04-11T14:34:41.540Z,43.00
2019-04-11T14:37:11.748Z,43.20
2019-04-11T14:39:42.027Z,41.60
2019-04-11T14:42:21.198Z,40.90
2019-04-11T14:44:51.441Z,41.30
2019-04-11T14:47:27.629Z,42.30
2019-04-11T14:49:58.285Z,41.50
2019-04-11T14:52:34.551Z,41.70
2019-04-11T14:55:03.579Z,41.30
2019-04-11T14:57:53.735Z,40.50
2019-04-11T15:00:26.832Z,39.80
2019-04-11T15:03:12.393Z,40.10
2019-04-11T15:05:48.424Z,39.60
2019-04-11T15:08:21.591Z,39.10
2019-04-11T15:10:57.772Z,37.80
2019-04-11T15:13:28.035Z,38.50
2019-04-11T15:15:58.255Z,38.40
2019-04-11T15:18:27.507Z,37.90
2019-04-11T15:20:57.681Z,37.20
2019-04-11T15:23:27.899Z,37.10
2019-04-11T15:26:14.666Z,37.20
2019-04-11T15:28:47.431Z,36.40
2019-04-11T15:31:20.452Z,36.20
2019-04-11T15:33:50.698Z,36.30
2019-04-11T15:36:20.902Z,36.10
2019-04-11T15:38:51.127Z,36.50
2019-04-11T15:41:19.696Z,36.20
2019-04-11T15:43:49.911Z,36.20
2019-04-11T15:46:20.200Z,35.30
2019-04-11T15:48:53.837Z,35.90
2019-04-11T15:51:24.793Z,35.50
2019-04-11T15:54:11.568Z,34.50
2019-04-11T15:56:44.542Z,34.80
2019-04-11T15:59:14.748Z,34.50
2019-04-11T16:02:01.090Z,34.60
2019-04-11T16:04:31.297Z,34.40
2019-04-11T16:07:11.904Z,33.40
2019-04-11T16:09:42.748Z,33.20
2019-04-11T16:12:18.715Z,33.50
2019-04-11T16:14:52.135Z,33.50
2019-04-11T16:17:38.624Z,33.80
2019-04-11T16:20:08.848Z,33.60
2019-04-11T16:22:55.311Z,32.90
2019-04-11T16:25:28.850Z,32.90
2019-04-11T16:28:07.232Z,33.60
2019-04-11T16:30:39.568Z,34.40
2019-04-11T16:33:09.147Z,34.90
2019-04-11T16:35:41.846Z,34.40
2019-04-11T16:38:19.106Z,33.80
2019-04-11T16:41:05.863Z,33.50
2019-04-11T16:43:34.558Z,33.50
2019-04-11T16:46:07.449Z,33.60
2019-04-11T16:48:36.102Z,32.40
2019-04-11T16:51:05.980Z,32.40
2019-04-11T16:53:34.733Z,33.10
2019-04-11T16:56:03.354Z,34.00
2019-04-11T16:58:32.004Z,34.70
2019-04-11T17:01:00.579Z,35.30
2019-04-11T17:03:29.552Z,36.40
2019-04-11T17:05:59.750Z,37.30
2019-04-11T17:08:36.261Z,38.70
2019-04-11T17:11:09.451Z,39.70
2019-04-11T17:13:38.139Z,40.40
2019-04-11T17:16:08.486Z,42.30
2019-04-11T17:18:37.074Z,43.40
2019-04-11T17:21:07.881Z,44.60
2019-04-11T17:23:36.476Z,45.40
2019-04-11T17:26:06.788Z,46.30
2019-04-11T17:28:35.945Z,47.40
2019-04-11T17:31:04.625Z,49.00
2019-04-11T17:33:33.274Z,50.30
2019-04-11T17:36:02.972Z,51.00
2019-04-11T17:38:31.775Z,51.70
2019-04-11T17:41:00.360Z,52.30
2019-04-11T17:43:28.937Z,53.50
2019-04-11T17:45:57.727Z,53.80
2019-04-11T17:48:26.431Z,54.30
2019-04-11T17:50:55.067Z,55.10
2019-04-11T17:53:24.879Z,55.50
2019-04-11T17:55:54.198Z,56.10
2019-04-11T17:58:26.926Z,57.00
2019-04-11T18:00:55.506Z,57.80
2019-04-11T18:03:24.108Z,58.50
2019-04-11T18:05:52.689Z,58.90
2019-04-11T18:08:21.264Z,60.30
2019-04-11T18:10:50.207Z,61.20
2019-04-11T18:13:18.862Z,62.20
2019-04-11T18:15:47.459Z,62.40
2019-04-11T18:18:16.353Z,63.40
2019-04-11T18:20:45.084Z,64.10
2019-04-11T18:23:13.727Z,64.30
2019-04-11T18:25:42.368Z,64.90
2019-04-11T18:28:11.019Z,65.20
2019-04-11T18:30:39.583Z,65.90
2019-04-11T18:33:08.242Z,66.30
2019-04-11T18:35:36.819Z,67.20
2019-04-11T18:38:05.453Z,68.30
2019-04-11T18:40:34.124Z,69.30
2019-04-11T18:43:02.864Z,69.60
2019-04-11T18:45:31.552Z,70.50
2019-04-11T18:48:00.220Z,71.40
2019-04-11T18:50:29.266Z,72.70
2019-04-11T18:52:59.501Z,72.50
2019-04-11T18:55:28.229Z,72.90
2019-04-11T18:57:56.827Z,72.70
2019-04-11T19:00:26.535Z,73.20
2019-04-11T19:02:55.177Z,73.60
2019-04-11T19:05:28.796Z,74.30
2019-04-11T19:07:54.183Z,74.50
2019-04-11T19:10:22.924Z,75.20
2019-04-11T19:12:51.574Z,75.90
2019-04-11T19:15:20.357Z,77.00
2019-04-11T19:17:49.326Z,77.20
2019-04-11T19:20:19.118Z,77.90
2019-04-11T19:22:48.496Z,78.60
2019-04-11T19:25:17.539Z,79.60
2019-04-11T19:27:49.998Z,80.10
2019-04-11T19:30:16.523Z,80.70
2019-04-11T19:32:45.180Z,81.20
2019-04-11T19:35:13.825Z,81.40
2019-04-11T19:37:42.754Z,82.00
2019-04-11T19:40:16.124Z,82.20
2019-04-11T19:42:42.410Z,82.30
2019-04-11T19:45:11.116Z,82.90
2019-04-11T19:47:39.694Z,82.80
2019-04-11T19:50:08.778Z,83.10
2019-04-11T19:52:45.256Z,83.60
2019-04-11T19:55:19.330Z,83.60
2019-04-11T19:57:48.033Z,83.40
2019-04-11T20:00:16.714Z,83.60
2019-04-11T20:02:45.316Z,83.60
2019-04-11T20:05:13.967Z,83.60
2019-04-11T20:07:42.606Z,83.80
2019-04-11T20:10:11.326Z,84.50
2019-04-11T20:12:39.900Z,84.70
2019-04-11T20:15:08.905Z,85.00
2019-04-11T20:17:44.363Z,85.60
2019-04-11T20:20:08.530Z,85.80
2019-04-11T20:22:39.683Z,85.70
2019-04-11T20:25:07.482Z,86.00
2019-04-11T20:27:36.507Z,86.20
2019-04-11T20:30:08.485Z,86.40
2019-04-11T20:32:37.456Z,86.90
2019-04-11T20:35:09.507Z,86.80
2019-04-11T20:37:39.566Z,87.50
2019-04-11T20:40:07.987Z,87.40
2019-04-11T20:42:36.631Z,88.30
2019-04-11T20:45:07.217Z,89.00
2019-04-11T20:47:35.885Z,88.70
2019-04-11T20:50:07.555Z,88.50
2019-04-11T20:52:36.281Z,88.70
2019-04-11T20:55:08.904Z,88.70
2019-04-11T20:57:36.845Z,88.90
2019-04-11T21:00:12.102Z,89.40
2019-04-11T21:02:38.833Z,89.10
2019-04-11T21:05:07.500Z,89.20
2019-04-11T21:07:36.083Z,89.50
2019-04-11T21:10:05.938Z,89.70
2019-04-11T21:12:36.974Z,90.10
2019-04-11T21:15:07.363Z,90.10
2019-04-11T21:17:35.889Z,90.00
2019-04-11T21:20:07.187Z,90.10
2019-04-11T21:22:35.849Z,90.20
2019-04-11T21:25:06.070Z,90.20
2019-04-11T21:27:34.784Z,90.20
2019-04-11T21:30:04.061Z,90.30
2019-04-11T21:32:32.813Z,90.30
2019-04-11T21:35:02.381Z,90.20
2019-04-11T21:37:31.577Z,90.20
2019-04-11T21:40:00.523Z,90.20
2019-04-11T21:42:29.088Z,90.20
2019-04-11T21:44:57.696Z,90.20
2019-04-11T21:47:26.680Z,90.20
2019-04-11T21:49:55.273Z,90.10
2019-04-11T21:52:24.132Z,90.20
2019-04-11T21:54:52.862Z,90.20
2019-04-11T21:57:22.093Z,90.20
2019-04-11T21:59:52.146Z,90.00
2019-04-11T22:02:24.034Z,90.00
2019-04-11T22:04:51.335Z,89.90
2019-04-11T22:07:19.909Z,90.00
2019-04-11T22:09:48.632Z,90.00
2019-04-11T22:12:17.358Z,89.80
2019-04-11T22:14:46.004Z,89.70
2019-04-11T22:17:15.940Z,89.70
2019-04-11T22:19:45.892Z,89.60
2019-04-11T22:22:15.027Z,89.60
2019-04-11T22:24:44.965Z,89.60
2019-04-11T22:27:13.619Z,89.60
2019-04-11T22:29:42.498Z,89.60
2019-04-11T22:32:11.244Z,89.50
2019-04-11T22:34:41.595Z,89.50
2019-04-11T22:37:10.276Z,89.60
2019-04-11T22:39:38.994Z,89.60
2019-04-11T22:42:07.998Z,89.40
2019-04-11T22:44:38.082Z,89.50
2019-04-11T22:47:08.117Z,89.40
2019-04-11T22:49:39.371Z,89.20
2019-04-11T22:52:07.534Z,89.30
2019-04-11T22:54:36.590Z,89.40
2019-04-11T22:57:05.188Z,89.20
2019-04-11T22:59:33.786Z,89.10
2019-04-11T23:02:16.877Z,89.10
2019-04-11T23:04:46.942Z,89.00
2019-04-11T23:07:15.047Z,89.00
2019-04-11T23:09:43.886Z,89.00
2019-04-11T23:12:12.755Z,89.00
2019-04-11T23:14:45.589Z,88.90
2019-04-11T23:17:14.184Z,88.70
2019-04-11T23:19:44.090Z,88.80
2019-04-11T23:22:13.359Z,88.70
2019-04-11T23:24:42.012Z,88.70
2019-04-11T23:27:10.947Z,88.60
2019-04-11T23:29:39.510Z,88.50
2019-04-11T23:32:08.311Z,88.50
2019-04-11T23:34:36.871Z,88.60
2019-04-11T23:37:05.573Z,88.70
2019-04-11T23:39:34.480Z,88.70
2019-04-11T23:42:03.209Z,88.60
2019-04-11T23:44:31.794Z,88.60
2019-04-11T23:47:00.323Z,88.60
2019-04-11T23:49:28.897Z,88.70
2019-04-11T23:51:57.510Z,88.50
2019-04-11T23:54:28.937Z,88.60
2019-04-11T23:56:56.383Z,88.70
2019-04-11T23:59:24.940Z,88.80
